Tuesday, August 30, 2016
01:26 UTC
  |  Log In   |  Register Free
Airport Search:

South Alabama Regional At Bill Benton Field Airport
(K79J)

South Alabama Regional At Bill Benton Field Airport Diagram
No Airport Diagram Available

FAA data valid effective Jul 21 2016 - Sep 15 2016 (unless otherwise noted).

 
 
 
 
 
 
 
 
 
 
 
 
 
 
Current Aviation Weather for K79J

Weather Summary


The most recent METAR observation for 79J was updated at: 12:53 UTC
METAR for 79J is not available. Closest METAR is for
METAR

METAR K79J 300056Z 04006KT 10SM CLR 29/21 A2999 RMK AO2 SLP149 T02890211

METAR K79J 292356Z 03010G15KT 10SM CLR 33/20 A2997 RMK AO2 SLP142 T03280200 10367 20328 55003

METAR K79J 292256Z 09006KT 10SM CLR 35/19 A2995 RMK AO2 SLP137 T03500189

METAR K0J4 300058Z 03006KT 10SM CLR 27/21 A2999 RMK AO2 RAB44E54 SLP152 P0000 T02670211

METAR KCEW 300053Z 03003KT 10SM CLR 27/21 A2997 RMK AO2 SLP143 T02670211

METAR KEDN METAR not available

TAF for 79J is not available.
TAF

KOZR - TAF KOZR 300000Z 3000/3106 VRB06KT 9999 BKN050 QNH2990INS

KOZR - TEMPO 3001/3003 VRB10G15KT 8000 -TSRA BKN030CB

KOZR - BECMG 3005/3006 06006KT 9999 FEW016 QNH2995INS

KOZR - BECMG 3017/3018 07012KT 9999 FEW050 QNH2986INS

KOZR - BECMG 3023/3024 VRB06KT 9999 SCT060 QNH2984INS TX34/3020Z TN22/3011Z =

GlobalAir.com is loading additional information.
 Current Weather at 79J
91.0 F° (32.8 C°)

Northeast winds at 11.5 mph
Pressure:
29.97 in
Humidity:
47%
Wind:
Northeast at 11.5 mph
Dew Point:
68.0 F° (20.0 C°)
Visibility:
10.00 mi
79J NOAA Radar




Find All Airport Services Find A Hotel Find A Rental Car Find A Golf Course Find A Restaurant $100 Hamburger



Airport Weather Forecast for K79J

Translated METAR for K79J (0056 UTC)
METAR:
K79J 300056Z AUTO South Alabama Regional at BB Field, Andalusia/Opp, AL (K79J). Aug 30, 0056Z, Automated. Wind from 040° at 6 knots, 10 statute miles visibility, Clear Skies, Temperature 29°C, Dewpoint 21°C, Altimeter is 29.99. Remarks: automated station with precipitation discriminator sea level pressure 1014.9 hectopascals hourly temp 28.9°C dewpoint 21.1°C
Conditions at:
K79J (South Alabama Rgnl At Bill Benton Field, AL) observed 0056 UTC 29 August 2016
Temperature:
91.0 F° (32.8 C°)
Dewpoint:
not reported - refer to area weather report
Pressure:
29.97 Hg
Winds:
not reported
Visibility:
10.00
Ceiling:
at least 12,000 feet AGL
Clouds:
not reported - refer to area weather report
Remarks:
site is un-manned

Translated TAF for TAF for 79J is not available. Refer to local area forecast.
FBO's on the Field
FBO Company Facility Photos Services Transportation Aviation Fuel Prices: Prices include tax
Catering Weather Repair Courtesy Rental Type 100LL JetA JetA+ MOGAS 8087
 
South Alabama Regional Airport

This FBO has not yet been rated
FS:Phillips 66
Last Updated: Aug-15
Login to update fuel prices
SS:
Contact South Alabama Regional AirportMore FBO Information
 
Add another FBO Facility Photos Catering Weather Repair Courtesy Rental Type 100LL JetA JetA+ MOGAS 8087
Services Transportation Aviation Fuel Prices: Prices include tax


model-print
model-print
model-print
model-print